sensor_id;sensor_type;location;lat;lon;timestamp;P1;durP1;ratioP1;P2;durP2;ratioP2
11100;SDS011;5604;50.722;7.078;2022-09-13T00:00:48;745.67;;;706.67;;
11100;SDS011;5604;50.722;7.078;2022-09-13T00:03:17;745.40;;;706.27;;
11100;SDS011;5604;50.722;7.078;2022-09-13T00:05:46;737.27;;;698.57;;
11100;SDS011;5604;50.722;7.078;2022-09-13T00:08:15;741.77;;;702.57;;
11100;SDS011;5604;50.722;7.078;2022-09-13T00:10:44;743.33;;;704.47;;
11100;SDS011;5604;50.722;7.078;2022-09-13T00:13:14;742.47;;;702.93;;
11100;SDS011;5604;50.722;7.078;2022-09-13T00:15:44;747.47;;;707.87;;
11100;SDS011;5604;50.722;7.078;2022-09-13T00:18:13;747.83;;;708.53;;
11100;SDS011;5604;50.722;7.078;2022-09-13T00:20:41;746.73;;;707.33;;
11100;SDS011;5604;50.722;7.078;2022-09-13T00:23:09;752.03;;;712.23;;
11100;SDS011;5604;50.722;7.078;2022-09-13T00:25:38;741.67;;;702.43;;
11100;SDS011;5604;50.722;7.078;2022-09-13T00:28:07;748.03;;;708.30;;
11100;SDS011;5604;50.722;7.078;2022-09-13T00:30:36;744.20;;;704.83;;
11100;SDS011;5604;50.722;7.078;2022-09-13T00:33:04;751.43;;;711.70;;
11100;SDS011;5604;50.722;7.078;2022-09-13T00:35:33;747.93;;;708.37;;
11100;SDS011;5604;50.722;7.078;2022-09-13T00:38:01;749.90;;;710.33;;
11100;SDS011;5604;50.722;7.078;2022-09-13T00:40:30;744.00;;;704.87;;
11100;SDS011;5604;50.722;7.078;2022-09-13T00:43:05;740.77;;;701.57;;
11100;SDS011;5604;50.722;7.078;2022-09-13T00:45:37;746.67;;;707.13;;
11100;SDS011;5604;50.722;7.078;2022-09-13T00:48:05;738.70;;;699.83;;
11100;SDS011;5604;50.722;7.078;2022-09-13T00:50:35;747.33;;;707.87;;
11100;SDS011;5604;50.722;7.078;2022-09-13T00:53:06;744.53;;;705.63;;
11100;SDS011;5604;50.722;7.078;2022-09-13T00:55:37;742.97;;;704.00;;
11100;SDS011;5604;50.722;7.078;2022-09-13T00:58:09;742.70;;;703.97;;
11100;SDS011;5604;50.722;7.078;2022-09-13T01:00:42;742.30;;;703.20;;
11100;SDS011;5604;50.722;7.078;2022-09-13T01:03:11;752.93;;;712.83;;
11100;SDS011;5604;50.722;7.078;2022-09-13T01:05:41;740.57;;;701.47;;
11100;SDS011;5604;50.722;7.078;2022-09-13T01:08:10;738.83;;;699.97;;
11100;SDS011;5604;50.722;7.078;2022-09-13T01:10:41;747.53;;;707.93;;
11100;SDS011;5604;50.722;7.078;2022-09-13T01:13:11;745.60;;;706.40;;
11100;SDS011;5604;50.722;7.078;2022-09-13T01:15:43;741.70;;;702.30;;
11100;SDS011;5604;50.722;7.078;2022-09-13T01:18:12;744.77;;;705.27;;
11100;SDS011;5604;50.722;7.078;2022-09-13T01:20:44;744.27;;;704.70;;
11100;SDS011;5604;50.722;7.078;2022-09-13T01:23:55;742.70;;;703.80;;
11100;SDS011;5604;50.722;7.078;2022-09-13T01:26:46;743.97;;;704.53;;
11100;SDS011;5604;50.722;7.078;2022-09-13T01:32:25;743.73;;;704.43;;
11100;SDS011;5604;50.722;7.078;2022-09-13T01:35:03;742.47;;;703.30;;
11100;SDS011;5604;50.722;7.078;2022-09-13T01:37:41;756.80;;;716.67;;
11100;SDS011;5604;50.722;7.078;2022-09-13T01:40:16;745.40;;;705.90;;
11100;SDS011;5604;50.722;7.078;2022-09-13T01:43:05;735.00;;;696.33;;
11100;SDS011;5604;50.722;7.078;2022-09-13T01:45:46;745.50;;;706.00;;
11100;SDS011;5604;50.722;7.078;2022-09-13T01:48:20;747.33;;;708.13;;
11100;SDS011;5604;50.722;7.078;2022-09-13T01:50:52;736.97;;;697.93;;
11100;SDS011;5604;50.722;7.078;2022-09-13T01:53:29;746.40;;;706.80;;
11100;SDS011;5604;50.722;7.078;2022-09-13T01:56:01;741.47;;;702.27;;
11100;SDS011;5604;50.722;7.078;2022-09-13T01:58:34;743.50;;;704.03;;
11100;SDS011;5604;50.722;7.078;2022-09-13T02:01:07;738.83;;;699.37;;
11100;SDS011;5604;50.722;7.078;2022-09-13T02:03:41;746.87;;;707.17;;
11100;SDS011;5604;50.722;7.078;2022-09-13T02:06:13;751.07;;;711.27;;
11100;SDS011;5604;50.722;7.078;2022-09-13T02:08:42;746.20;;;706.77;;
11100;SDS011;5604;50.722;7.078;2022-09-13T02:11:12;741.67;;;702.63;;
11100;SDS011;5604;50.722;7.078;2022-09-13T02:13:45;742.67;;;703.47;;
11100;SDS011;5604;50.722;7.078;2022-09-13T02:16:17;737.33;;;697.87;;
11100;SDS011;5604;50.722;7.078;2022-09-13T02:18:52;746.87;;;707.17;;
11100;SDS011;5604;50.722;7.078;2022-09-13T02:21:22;749.10;;;709.87;;
11100;SDS011;5604;50.722;7.078;2022-09-13T02:23:54;751.03;;;711.43;;
11100;SDS011;5604;50.722;7.078;2022-09-13T02:26:25;747.50;;;708.17;;
11100;SDS011;5604;50.722;7.078;2022-09-13T02:28:57;743.13;;;704.00;;
11100;SDS011;5604;50.722;7.078;2022-09-13T02:31:28;742.23;;;702.87;;
11100;SDS011;5604;50.722;7.078;2022-09-13T02:34:01;749.67;;;709.87;;
11100;SDS011;5604;50.722;7.078;2022-09-13T02:36:33;747.93;;;708.07;;
11100;SDS011;5604;50.722;7.078;2022-09-13T02:39:04;751.50;;;711.47;;
11100;SDS011;5604;50.722;7.078;2022-09-13T02:41:38;749.90;;;710.03;;
11100;SDS011;5604;50.722;7.078;2022-09-13T02:44:11;747.67;;;708.00;;
11100;SDS011;5604;50.722;7.078;2022-09-13T02:46:46;747.87;;;707.90;;
11100;SDS011;5604;50.722;7.078;2022-09-13T02:49:29;756.53;;;716.27;;
11100;SDS011;5604;50.722;7.078;2022-09-13T02:52:05;748.00;;;707.97;;
11100;SDS011;5604;50.722;7.078;2022-09-13T02:54:35;755.80;;;715.63;;
11100;SDS011;5604;50.722;7.078;2022-09-13T02:57:07;748.57;;;708.93;;
11100;SDS011;5604;50.722;7.078;2022-09-13T02:59:38;747.87;;;707.93;;
11100;SDS011;5604;50.722;7.078;2022-09-13T03:02:07;740.20;;;700.90;;
11100;SDS011;5604;50.722;7.078;2022-09-13T03:04:41;755.37;;;715.17;;
11100;SDS011;5604;50.722;7.078;2022-09-13T03:07:10;741.30;;;702.27;;
11100;SDS011;5604;50.722;7.078;2022-09-13T03:09:38;739.27;;;700.20;;
11100;SDS011;5604;50.722;7.078;2022-09-13T03:15:09;741.83;;;702.43;;
11100;SDS011;5604;50.722;7.078;2022-09-13T03:17:45;741.90;;;702.63;;
11100;SDS011;5604;50.722;7.078;2022-09-13T03:20:23;742.97;;;703.67;;
11100;SDS011;5604;50.722;7.078;2022-09-13T03:26:04;731.43;;;692.60;;
11100;SDS011;5604;50.722;7.078;2022-09-13T03:28:50;739.93;;;700.80;;
11100;SDS011;5604;50.722;7.078;2022-09-13T03:31:23;734.87;;;695.97;;
11100;SDS011;5604;50.722;7.078;2022-09-13T03:33:55;739.33;;;700.20;;
11100;SDS011;5604;50.722;7.078;2022-09-13T03:36:29;744.70;;;705.20;;
11100;SDS011;5604;50.722;7.078;2022-09-13T03:39:02;738.87;;;700.00;;
11100;SDS011;5604;50.722;7.078;2022-09-13T03:41:41;744.30;;;704.73;;
11100;SDS011;5604;50.722;7.078;2022-09-13T03:44:11;749.27;;;709.07;;
11100;SDS011;5604;50.722;7.078;2022-09-13T03:46:42;749.20;;;709.17;;
11100;SDS011;5604;50.722;7.078;2022-09-13T03:49:13;752.23;;;711.77;;
11100;SDS011;5604;50.722;7.078;2022-09-13T03:51:44;743.87;;;704.07;;
11100;SDS011;5604;50.722;7.078;2022-09-13T03:54:15;744.13;;;704.40;;
11100;SDS011;5604;50.722;7.078;2022-09-13T03:59:32;753.97;;;713.77;;
11100;SDS011;5604;50.722;7.078;2022-09-13T04:02:02;743.23;;;703.60;;
11100;SDS011;5604;50.722;7.078;2022-09-13T04:04:30;744.07;;;704.47;;
11100;SDS011;5604;50.722;7.078;2022-09-13T04:07:00;743.80;;;704.50;;
11100;SDS011;5604;50.722;7.078;2022-09-13T04:09:29;741.23;;;701.67;;
11100;SDS011;5604;50.722;7.078;2022-09-13T04:11:57;740.80;;;701.53;;
11100;SDS011;5604;50.722;7.078;2022-09-13T04:14:26;742.57;;;702.87;;
11100;SDS011;5604;50.722;7.078;2022-09-13T04:16:54;750.60;;;710.60;;
11100;SDS011;5604;50.722;7.078;2022-09-13T04:19:25;748.53;;;708.80;;
11100;SDS011;5604;50.722;7.078;2022-09-13T04:21:56;738.47;;;699.87;;
11100;SDS011;5604;50.722;7.078;2022-09-13T04:24:25;752.30;;;712.30;;
11100;SDS011;5604;50.722;7.078;2022-09-13T04:26:54;739.13;;;700.27;;
11100;SDS011;5604;50.722;7.078;2022-09-13T04:29:23;748.73;;;709.07;;
11100;SDS011;5604;50.722;7.078;2022-09-13T04:31:53;741.70;;;702.13;;
11100;SDS011;5604;50.722;7.078;2022-09-13T04:34:21;743.40;;;704.03;;
11100;SDS011;5604;50.722;7.078;2022-09-13T04:36:50;752.63;;;712.70;;
11100;SDS011;5604;50.722;7.078;2022-09-13T04:39:19;747.37;;;707.47;;
11100;SDS011;5604;50.722;7.078;2022-09-13T04:41:51;742.57;;;703.13;;
11100;SDS011;5604;50.722;7.078;2022-09-13T04:44:24;741.57;;;701.77;;
11100;SDS011;5604;50.722;7.078;2022-09-13T04:46:52;743.97;;;704.07;;
11100;SDS011;5604;50.722;7.078;2022-09-13T04:49:22;739.73;;;700.60;;
11100;SDS011;5604;50.722;7.078;2022-09-13T04:51:51;753.17;;;712.97;;
11100;SDS011;5604;50.722;7.078;2022-09-13T04:54:19;751.03;;;710.67;;
11100;SDS011;5604;50.722;7.078;2022-09-13T04:56:47;749.90;;;709.90;;
11100;SDS011;5604;50.722;7.078;2022-09-13T04:59:17;742.23;;;702.73;;
11100;SDS011;5604;50.722;7.078;2022-09-13T05:01:45;750.70;;;710.90;;
11100;SDS011;5604;50.722;7.078;2022-09-13T05:04:14;740.50;;;700.97;;
11100;SDS011;5604;50.722;7.078;2022-09-13T05:06:42;740.90;;;701.67;;
11100;SDS011;5604;50.722;7.078;2022-09-13T05:09:13;744.40;;;704.90;;
11100;SDS011;5604;50.722;7.078;2022-09-13T05:11:41;738.63;;;699.53;;
11100;SDS011;5604;50.722;7.078;2022-09-13T05:14:10;742.57;;;703.03;;
11100;SDS011;5604;50.722;7.078;2022-09-13T05:16:40;752.37;;;712.03;;
11100;SDS011;5604;50.722;7.078;2022-09-13T05:19:08;748.53;;;708.57;;
11100;SDS011;5604;50.722;7.078;2022-09-13T05:21:37;746.80;;;707.30;;
11100;SDS011;5604;50.722;7.078;2022-09-13T05:24:05;743.87;;;704.07;;
11100;SDS011;5604;50.722;7.078;2022-09-13T05:26:33;742.60;;;703.13;;
11100;SDS011;5604;50.722;7.078;2022-09-13T05:29:02;731.47;;;692.70;;
11100;SDS011;5604;50.722;7.078;2022-09-13T05:31:31;741.67;;;702.40;;
11100;SDS011;5604;50.722;7.078;2022-09-13T05:34:02;740.10;;;700.83;;
11100;SDS011;5604;50.722;7.078;2022-09-13T05:36:32;742.40;;;702.83;;
11100;SDS011;5604;50.722;7.078;2022-09-13T05:39:00;747.10;;;707.20;;
11100;SDS011;5604;50.722;7.078;2022-09-13T05:41:51;742.50;;;702.83;;
11100;SDS011;5604;50.722;7.078;2022-09-13T05:44:19;743.63;;;704.40;;
11100;SDS011;5604;50.722;7.078;2022-09-13T05:46:47;736.93;;;697.87;;
11100;SDS011;5604;50.722;7.078;2022-09-13T05:49:17;729.27;;;690.97;;
11100;SDS011;5604;50.722;7.078;2022-09-13T05:51:45;728.87;;;690.70;;
11100;SDS011;5604;50.722;7.078;2022-09-13T05:54:13;733.33;;;694.67;;
11100;SDS011;5604;50.722;7.078;2022-09-13T05:56:41;743.97;;;704.53;;
11100;SDS011;5604;50.722;7.078;2022-09-13T05:59:10;733.27;;;694.70;;
11100;SDS011;5604;50.722;7.078;2022-09-13T06:01:39;745.90;;;706.33;;
11100;SDS011;5604;50.722;7.078;2022-09-13T06:04:07;744.13;;;704.57;;
11100;SDS011;5604;50.722;7.078;2022-09-13T06:06:39;740.43;;;701.43;;
11100;SDS011;5604;50.722;7.078;2022-09-13T06:09:09;733.27;;;694.53;;
11100;SDS011;5604;50.722;7.078;2022-09-13T06:11:37;743.33;;;704.13;;
11100;SDS011;5604;50.722;7.078;2022-09-13T06:14:05;736.63;;;697.93;;
11100;SDS011;5604;50.722;7.078;2022-09-13T06:16:33;737.77;;;699.03;;
11100;SDS011;5604;50.722;7.078;2022-09-13T06:19:02;728.63;;;689.77;;
11100;SDS011;5604;50.722;7.078;2022-09-13T06:21:30;732.50;;;693.70;;
11100;SDS011;5604;50.722;7.078;2022-09-13T06:23:59;732.60;;;694.20;;
11100;SDS011;5604;50.722;7.078;2022-09-13T06:26:29;738.40;;;699.27;;
11100;SDS011;5604;50.722;7.078;2022-09-13T06:28:57;733.23;;;693.83;;
11100;SDS011;5604;50.722;7.078;2022-09-13T06:31:26;732.07;;;693.33;;
11100;SDS011;5604;50.722;7.078;2022-09-13T06:33:55;732.07;;;693.90;;
11100;SDS011;5604;50.722;7.078;2022-09-13T06:36:24;723.57;;;685.50;;
11100;SDS011;5604;50.722;7.078;2022-09-13T06:38:53;735.17;;;695.83;;
11100;SDS011;5604;50.722;7.078;2022-09-13T06:41:23;735.13;;;696.70;;
11100;SDS011;5604;50.722;7.078;2022-09-13T06:43:55;732.73;;;694.13;;
11100;SDS011;5604;50.722;7.078;2022-09-13T06:46:28;734.13;;;695.40;;
11100;SDS011;5604;50.722;7.078;2022-09-13T06:48:57;725.43;;;687.70;;
11100;SDS011;5604;50.722;7.078;2022-09-13T06:51:26;732.43;;;693.73;;
11100;SDS011;5604;50.722;7.078;2022-09-13T06:53:55;735.07;;;696.63;;
11100;SDS011;5604;50.722;7.078;2022-09-13T06:56:25;733.87;;;695.40;;
11100;SDS011;5604;50.722;7.078;2022-09-13T06:58:55;723.77;;;685.90;;
11100;SDS011;5604;50.722;7.078;2022-09-13T07:01:24;730.53;;;692.17;;
11100;SDS011;5604;50.722;7.078;2022-09-13T07:03:55;732.30;;;693.60;;
11100;SDS011;5604;50.722;7.078;2022-09-13T07:06:25;727.67;;;689.67;;
11100;SDS011;5604;50.722;7.078;2022-09-13T07:08:56;718.50;;;681.27;;
11100;SDS011;5604;50.722;7.078;2022-09-13T07:11:28;710.90;;;674.07;;
11100;SDS011;5604;50.722;7.078;2022-09-13T07:13:58;729.73;;;691.63;;
11100;SDS011;5604;50.722;7.078;2022-09-13T07:16:26;718.80;;;681.30;;
11100;SDS011;5604;50.722;7.078;2022-09-13T07:18:56;721.60;;;684.03;;
11100;SDS011;5604;50.722;7.078;2022-09-13T07:21:25;725.73;;;687.67;;
11100;SDS011;5604;50.722;7.078;2022-09-13T07:23:55;721.60;;;684.17;;
11100;SDS011;5604;50.722;7.078;2022-09-13T07:26:23;729.40;;;691.17;;
11100;SDS011;5604;50.722;7.078;2022-09-13T07:28:54;729.20;;;691.23;;
11100;SDS011;5604;50.722;7.078;2022-09-13T07:31:25;717.13;;;679.80;;
11100;SDS011;5604;50.722;7.078;2022-09-13T07:33:55;720.07;;;682.67;;
11100;SDS011;5604;50.722;7.078;2022-09-13T07:36:23;719.27;;;681.90;;
11100;SDS011;5604;50.722;7.078;2022-09-13T07:38:52;718.80;;;681.60;;
11100;SDS011;5604;50.722;7.078;2022-09-13T07:41:20;714.97;;;678.13;;
11100;SDS011;5604;50.722;7.078;2022-09-13T07:43:49;714.67;;;677.77;;
11100;SDS011;5604;50.722;7.078;2022-09-13T07:46:20;718.50;;;681.07;;
11100;SDS011;5604;50.722;7.078;2022-09-13T07:48:48;713.73;;;676.87;;
11100;SDS011;5604;50.722;7.078;2022-09-13T07:51:20;723.33;;;685.67;;
11100;SDS011;5604;50.722;7.078;2022-09-13T07:53:49;710.30;;;673.50;;
11100;SDS011;5604;50.722;7.078;2022-09-13T07:56:23;721.53;;;684.07;;
11100;SDS011;5604;50.722;7.078;2022-09-13T07:58:53;722.60;;;684.53;;
11100;SDS011;5604;50.722;7.078;2022-09-13T08:01:23;719.70;;;682.33;;
11100;SDS011;5604;50.722;7.078;2022-09-13T08:03:52;712.27;;;675.57;;
11100;SDS011;5604;50.722;7.078;2022-09-13T08:06:23;715.90;;;678.70;;
11100;SDS011;5604;50.722;7.078;2022-09-13T08:08:51;712.20;;;675.40;;
11100;SDS011;5604;50.722;7.078;2022-09-13T08:11:22;722.43;;;684.87;;
11100;SDS011;5604;50.722;7.078;2022-09-13T08:13:57;717.07;;;679.73;;
11100;SDS011;5604;50.722;7.078;2022-09-13T08:16:27;714.10;;;677.23;;
11100;SDS011;5604;50.722;7.078;2022-09-13T08:18:57;716.60;;;679.53;;
11100;SDS011;5604;50.722;7.078;2022-09-13T08:21:31;719.70;;;682.03;;
11100;SDS011;5604;50.722;7.078;2022-09-13T08:24:00;714.80;;;677.63;;
11100;SDS011;5604;50.722;7.078;2022-09-13T08:26:32;719.00;;;681.50;;
11100;SDS011;5604;50.722;7.078;2022-09-13T08:29:02;714.13;;;677.37;;
11100;SDS011;5604;50.722;7.078;2022-09-13T08:31:33;713.20;;;676.07;;
11100;SDS011;5604;50.722;7.078;2022-09-13T08:34:01;709.77;;;672.90;;
11100;SDS011;5604;50.722;7.078;2022-09-13T08:36:29;703.73;;;667.70;;
11100;SDS011;5604;50.722;7.078;2022-09-13T08:38:59;699.57;;;663.43;;
11100;SDS011;5604;50.722;7.078;2022-09-13T08:41:41;698.97;;;662.80;;
11100;SDS011;5604;50.722;7.078;2022-09-13T08:44:20;709.03;;;672.30;;
11100;SDS011;5604;50.722;7.078;2022-09-13T08:46:56;706.93;;;670.70;;
11100;SDS011;5604;50.722;7.078;2022-09-13T08:49:27;701.10;;;664.50;;
11100;SDS011;5604;50.722;7.078;2022-09-13T08:52:02;699.27;;;663.47;;
11100;SDS011;5604;50.722;7.078;2022-09-13T08:54:37;715.27;;;667.97;;
11100;SDS011;5604;50.722;7.078;2022-09-13T08:57:07;712.73;;;675.77;;
11100;SDS011;5604;50.722;7.078;2022-09-13T08:59:47;705.43;;;668.90;;
11100;SDS011;5604;50.722;7.078;2022-09-13T09:02:26;701.03;;;664.77;;
11100;SDS011;5604;50.722;7.078;2022-09-13T09:05:03;706.23;;;669.57;;
11100;SDS011;5604;50.722;7.078;2022-09-13T09:07:44;708.47;;;672.00;;
11100;SDS011;5604;50.722;7.078;2022-09-13T09:10:14;692.23;;;656.60;;
11100;SDS011;5604;50.722;7.078;2022-09-13T09:12:45;689.50;;;653.93;;
11100;SDS011;5604;50.722;7.078;2022-09-13T09:15:16;707.80;;;669.83;;
11100;SDS011;5604;50.722;7.078;2022-09-13T09:17:49;687.00;;;652.17;;
11100;SDS011;5604;50.722;7.078;2022-09-13T09:20:23;709.10;;;672.43;;
11100;SDS011;5604;50.722;7.078;2022-09-13T09:22:53;696.77;;;660.97;;
11100;SDS011;5604;50.722;7.078;2022-09-13T09:25:22;696.87;;;661.17;;
11100;SDS011;5604;50.722;7.078;2022-09-13T09:27:54;693.27;;;657.77;;
11100;SDS011;5604;50.722;7.078;2022-09-13T09:30:23;687.00;;;652.30;;
11100;SDS011;5604;50.722;7.078;2022-09-13T09:33:12;683.80;;;649.00;;
11100;SDS011;5604;50.722;7.078;2022-09-13T09:35:49;674.10;;;640.17;;
11100;SDS011;5604;50.722;7.078;2022-09-13T09:38:24;669.97;;;636.33;;
11100;SDS011;5604;50.722;7.078;2022-09-13T09:40:59;671.40;;;637.77;;
11100;SDS011;5604;50.722;7.078;2022-09-13T09:43:33;665.43;;;632.33;;
11100;SDS011;5604;50.722;7.078;2022-09-13T09:46:04;652.07;;;620.00;;
11100;SDS011;5604;50.722;7.078;2022-09-13T09:48:36;665.63;;;632.60;;
11100;SDS011;5604;50.722;7.078;2022-09-13T09:51:08;646.97;;;615.43;;
11100;SDS011;5604;50.722;7.078;2022-09-13T09:53:38;643.40;;;611.87;;
11100;SDS011;5604;50.722;7.078;2022-09-13T09:56:15;641.23;;;609.97;;
11100;SDS011;5604;50.722;7.078;2022-09-13T09:58:48;638.00;;;606.97;;
11100;SDS011;5604;50.722;7.078;2022-09-13T10:01:18;641.23;;;609.97;;
11100;SDS011;5604;50.722;7.078;2022-09-13T10:03:51;633.40;;;602.50;;
11100;SDS011;5604;50.722;7.078;2022-09-13T10:06:30;643.07;;;611.80;;
11100;SDS011;5604;50.722;7.078;2022-09-13T10:08:59;638.10;;;606.77;;
11100;SDS011;5604;50.722;7.078;2022-09-13T10:11:38;632.40;;;601.93;;
11100;SDS011;5604;50.722;7.078;2022-09-13T10:14:25;633.10;;;602.63;;
11100;SDS011;5604;50.722;7.078;2022-09-13T10:17:02;641.87;;;610.33;;
11100;SDS011;5604;50.722;7.078;2022-09-13T10:19:33;631.20;;;600.73;;
11100;SDS011;5604;50.722;7.078;2022-09-13T10:22:04;633.53;;;603.03;;
11100;SDS011;5604;50.722;7.078;2022-09-13T10:24:35;642.90;;;611.77;;
11100;SDS011;5604;50.722;7.078;2022-09-13T10:27:03;641.43;;;609.87;;
11100;SDS011;5604;50.722;7.078;2022-09-13T10:29:32;642.80;;;610.87;;
11100;SDS011;5604;50.722;7.078;2022-09-13T10:32:00;645.47;;;614.10;;
11100;SDS011;5604;50.722;7.078;2022-09-13T10:34:36;637.60;;;606.53;;
11100;SDS011;5604;50.722;7.078;2022-09-13T10:37:05;645.70;;;613.10;;
11100;SDS011;5604;50.722;7.078;2022-09-13T10:39:47;643.00;;;611.43;;
11100;SDS011;5604;50.722;7.078;2022-09-13T10:42:23;637.87;;;606.77;;
11100;SDS011;5604;50.722;7.078;2022-09-13T10:44:53;638.07;;;606.90;;
11100;SDS011;5604;50.722;7.078;2022-09-13T10:47:23;647.30;;;615.43;;
11100;SDS011;5604;50.722;7.078;2022-09-13T10:49:54;652.97;;;620.87;;
11100;SDS011;5604;50.722;7.078;2022-09-13T10:52:25;654.40;;;622.03;;
11100;SDS011;5604;50.722;7.078;2022-09-13T10:55:15;641.23;;;610.13;;
11100;SDS011;5604;50.722;7.078;2022-09-13T10:57:51;641.47;;;610.27;;
11100;SDS011;5604;50.722;7.078;2022-09-13T11:00:21;632.90;;;602.47;;
11100;SDS011;5604;50.722;7.078;2022-09-13T11:03:04;644.07;;;612.57;;
11100;SDS011;5604;50.722;7.078;2022-09-13T11:05:49;636.93;;;605.97;;
11100;SDS011;5604;50.722;7.078;2022-09-13T11:08:24;635.60;;;604.57;;
11100;SDS011;5604;50.722;7.078;2022-09-13T11:11:09;633.33;;;602.70;;
11100;SDS011;5604;50.722;7.078;2022-09-13T11:13:42;629.03;;;598.33;;
11100;SDS011;5604;50.722;7.078;2022-09-13T11:16:27;635.20;;;604.60;;
11100;SDS011;5604;50.722;7.078;2022-09-13T11:19:05;624.27;;;594.43;;
11100;SDS011;5604;50.722;7.078;2022-09-13T11:21:47;637.80;;;607.07;;
11100;SDS011;5604;50.722;7.078;2022-09-13T11:24:35;628.27;;;597.70;;
11100;SDS011;5604;50.722;7.078;2022-09-13T11:27:11;623.13;;;593.20;;
11100;SDS011;5604;50.722;7.078;2022-09-13T11:29:49;632.47;;;601.50;;
11100;SDS011;5604;50.722;7.078;2022-09-13T11:32:31;625.67;;;595.80;;
11100;SDS011;5604;50.722;7.078;2022-09-13T11:35:16;630.97;;;600.57;;
11100;SDS011;5604;50.722;7.078;2022-09-13T11:37:55;619.27;;;589.80;;
11100;SDS011;5604;50.722;7.078;2022-09-13T11:40:31;616.03;;;586.73;;
11100;SDS011;5604;50.722;7.078;2022-09-13T11:43:10;625.17;;;595.37;;
11100;SDS011;5604;50.722;7.078;2022-09-13T11:45:48;641.87;;;610.90;;
11100;SDS011;5604;50.722;7.078;2022-09-13T11:48:36;630.37;;;600.17;;
11100;SDS011;5604;50.722;7.078;2022-09-13T11:51:12;637.80;;;607.10;;
11100;SDS011;5604;50.722;7.078;2022-09-13T11:53:55;626.77;;;596.60;;
11100;SDS011;5604;50.722;7.078;2022-09-13T11:56:32;638.47;;;607.27;;
11100;SDS011;5604;50.722;7.078;2022-09-13T11:59:06;634.60;;;603.97;;
11100;SDS011;5604;50.722;7.078;2022-09-13T12:01:44;635.33;;;605.00;;
11100;SDS011;5604;50.722;7.078;2022-09-13T12:04:16;630.73;;;600.37;;
11100;SDS011;5604;50.722;7.078;2022-09-13T12:06:52;625.70;;;595.50;;
11100;SDS011;5604;50.722;7.078;2022-09-13T12:09:24;617.50;;;587.83;;
11100;SDS011;5604;50.722;7.078;2022-09-13T12:11:57;633.03;;;602.60;;
11100;SDS011;5604;50.722;7.078;2022-09-13T12:14:33;638.70;;;607.90;;
11100;SDS011;5604;50.722;7.078;2022-09-13T12:17:11;634.23;;;603.53;;
11100;SDS011;5604;50.722;7.078;2022-09-13T12:19:46;632.90;;;602.40;;
11100;SDS011;5604;50.722;7.078;2022-09-13T12:22:17;639.77;;;608.80;;
11100;SDS011;5604;50.722;7.078;2022-09-13T12:24:47;637.80;;;606.97;;
11100;SDS011;5604;50.722;7.078;2022-09-13T12:27:21;631.47;;;600.90;;
11100;SDS011;5604;50.722;7.078;2022-09-13T12:29:52;638.33;;;606.53;;
11100;SDS011;5604;50.722;7.078;2022-09-13T12:32:22;622.83;;;592.73;;
11100;SDS011;5604;50.722;7.078;2022-09-13T12:34:53;631.83;;;601.10;;
11100;SDS011;5604;50.722;7.078;2022-09-13T12:37:27;631.60;;;600.63;;
11100;SDS011;5604;50.722;7.078;2022-09-13T12:40:10;637.10;;;606.20;;
11100;SDS011;5604;50.722;7.078;2022-09-13T12:42:52;626.50;;;596.27;;
11100;SDS011;5604;50.722;7.078;2022-09-13T12:45:34;638.90;;;607.77;;
11100;SDS011;5604;50.722;7.078;2022-09-13T12:48:23;626.67;;;596.50;;
11100;SDS011;5604;50.722;7.078;2022-09-13T12:51:07;631.90;;;601.40;;
11100;SDS011;5604;50.722;7.078;2022-09-13T12:53:55;625.20;;;595.20;;
11100;SDS011;5604;50.722;7.078;2022-09-13T12:56:39;635.93;;;605.27;;
11100;SDS011;5604;50.722;7.078;2022-09-13T13:02:01;635.50;;;604.47;;
11100;SDS011;5604;50.722;7.078;2022-09-13T13:04:31;631.90;;;600.93;;
11100;SDS011;5604;50.722;7.078;2022-09-13T13:07:01;644.07;;;612.80;;
11100;SDS011;5604;50.722;7.078;2022-09-13T13:09:33;628.03;;;597.40;;
11100;SDS011;5604;50.722;7.078;2022-09-13T13:12:07;626.07;;;595.73;;
11100;SDS011;5604;50.722;7.078;2022-09-13T13:14:47;629.77;;;599.37;;
11100;SDS011;5604;50.722;7.078;2022-09-13T13:17:35;627.03;;;596.90;;
11100;SDS011;5604;50.722;7.078;2022-09-13T13:23:15;633.30;;;602.40;;
11100;SDS011;5604;50.722;7.078;2022-09-13T13:25:59;637.93;;;606.87;;
11100;SDS011;5604;50.722;7.078;2022-09-13T13:31:33;626.80;;;596.53;;
11100;SDS011;5604;50.722;7.078;2022-09-13T13:40:10;622.23;;;592.13;;
11100;SDS011;5604;50.722;7.078;2022-09-13T13:42:40;628.37;;;597.53;;
11100;SDS011;5604;50.722;7.078;2022-09-13T13:45:16;627.53;;;597.07;;
11100;SDS011;5604;50.722;7.078;2022-09-13T13:47:52;624.20;;;594.05;;
11100;SDS011;5604;50.722;7.078;2022-09-13T13:50:21;629.27;;;598.97;;
11100;SDS011;5604;50.722;7.078;2022-09-13T13:52:50;624.67;;;594.60;;
11100;SDS011;5604;50.722;7.078;2022-09-13T13:55:29;631.03;;;600.60;;
11100;SDS011;5604;50.722;7.078;2022-09-13T13:58:11;629.50;;;599.37;;
11100;SDS011;5604;50.722;7.078;2022-09-13T14:00:53;627.60;;;597.30;;
11100;SDS011;5604;50.722;7.078;2022-09-13T14:03:24;619.20;;;589.83;;
11100;SDS011;5604;50.722;7.078;2022-09-13T14:05:59;620.70;;;591.20;;
11100;SDS011;5604;50.722;7.078;2022-09-13T14:08:37;616.97;;;587.77;;
11100;SDS011;5604;50.722;7.078;2022-09-13T14:11:13;629.50;;;599.47;;
11100;SDS011;5604;50.722;7.078;2022-09-13T14:13:50;621.60;;;591.90;;
11100;SDS011;5604;50.722;7.078;2022-09-13T14:16:28;610.90;;;582.27;;
11100;SDS011;5604;50.722;7.078;2022-09-13T14:22:03;622.10;;;592.43;;
11100;SDS011;5604;50.722;7.078;2022-09-13T14:24:40;623.17;;;592.67;;
11100;SDS011;5604;50.722;7.078;2022-09-13T14:27:15;620.20;;;590.30;;
11100;SDS011;5604;50.722;7.078;2022-09-13T14:29:45;626.27;;;596.10;;
11100;SDS011;5604;50.722;7.078;2022-09-13T14:32:17;616.33;;;586.97;;
11100;SDS011;5604;50.722;7.078;2022-09-13T14:34:55;619.03;;;589.80;;
11100;SDS011;5604;50.722;7.078;2022-09-13T14:37:25;630.20;;;600.17;;
11100;SDS011;5604;50.722;7.078;2022-09-13T14:39:56;622.80;;;592.83;;
11100;SDS011;5604;50.722;7.078;2022-09-13T14:42:26;623.07;;;593.47;;
11100;SDS011;5604;50.722;7.078;2022-09-13T14:45:04;634.10;;;603.77;;
11100;SDS011;5604;50.722;7.078;2022-09-13T14:47:35;619.80;;;590.27;;
11100;SDS011;5604;50.722;7.078;2022-09-13T14:50:11;629.03;;;598.40;;
11100;SDS011;5604;50.722;7.078;2022-09-13T14:52:41;621.17;;;591.43;;
11100;SDS011;5604;50.722;7.078;2022-09-13T14:55:15;624.60;;;594.60;;
11100;SDS011;5604;50.722;7.078;2022-09-13T14:57:45;632.77;;;601.10;;
11100;SDS011;5604;50.722;7.078;2022-09-13T15:00:16;637.47;;;605.67;;
11100;SDS011;5604;50.722;7.078;2022-09-13T15:02:48;626.33;;;595.97;;
11100;SDS011;5604;50.722;7.078;2022-09-13T15:05:18;636.10;;;604.60;;
11100;SDS011;5604;50.722;7.078;2022-09-13T15:07:47;636.87;;;605.73;;
11100;SDS011;5604;50.722;7.078;2022-09-13T15:10:20;634.87;;;604.00;;